Time;durP1;ratioP1;P1;durP2;ratioP2;P2;SDS_P1;SDS_P2;PMS_P1;PMS_P2;Temp;Humidity;BMP_temperature;BMP_pressure;BME280_temperature;BME280_humidity;BME280_pressure;Samples;Min_cycle;Max_cycle;Signal;HPM_P1;HPM_P2
2022/05/15 00:00:41;;;;;;;6.60;6.00;;;16.20;90.50;;;;;;5073045;28;20458;-57
2022/05/15 00:03:13;;;;;;;7.90;5.10;;;16.10;90.60;;;;;;5072714;28;20493;-57
2022/05/15 00:05:41;;;;;;;8.87;5.97;;;16.20;91.00;;;;;;5075901;28;20524;-57
2022/05/15 00:08:09;;;;;;;7.73;6.27;;;16.20;91.20;;;;;;5076753;28;20455;-57
2022/05/15 00:10:37;;;;;;;10.13;5.73;;;15.90;91.70;;;;;;5076347;28;20544;-57
2022/05/15 00:13:07;;;;;;;5.33;4.83;;;15.90;92.40;;;;;;5076088;28;20447;-57
2022/05/15 00:15:34;;;;;;;6.47;4.90;;;16.00;92.60;;;;;;5076528;28;20429;-57
2022/05/15 00:18:02;;;;;;;6.77;6.00;;;16.00;92.90;;;;;;5076178;28;20452;-57
2022/05/15 00:20:29;;;;;;;8.93;5.97;;;15.90;93.50;;;;;;5075882;28;20476;-57
2022/05/15 00:22:56;;;;;;;6.57;5.77;;;15.90;93.50;;;;;;5076030;28;20444;-57
2022/05/15 00:25:24;;;;;;;8.27;5.20;;;15.70;99.90;;;;;;5075916;28;20535;-57
2022/05/15 00:27:51;;;;;;;7.90;5.73;;;15.60;94.20;;;;;;5075770;28;20956;-57
2022/05/15 00:30:21;;;;;;;7.70;6.90;;;15.70;94.20;;;;;;5076138;28;20523;-57
2022/05/15 00:32:48;;;;;;;5.70;5.20;;;15.70;94.90;;;;;;5075821;28;20535;-57
2022/05/15 00:35:16;;;;;;;6.10;5.10;;;15.80;95.60;;;;;;5075755;28;20448;-57
2022/05/15 00:37:43;;;;;;;6.47;5.70;;;15.80;95.00;;;;;;5076224;28;20433;-57
2022/05/15 00:40:12;;;;;;;5.70;5.20;;;15.80;95.70;;;;;;5075716;28;20491;-57
2022/05/15 00:42:39;;;;;;;7.33;5.70;;;15.90;96.10;;;;;;5075801;28;20449;-57
2022/05/15 00:45:07;;;;;;;6.90;6.20;;;15.80;96.10;;;;;;5076148;28;20458;-57
2022/05/15 00:47:36;;;;;;;8.00;6.03;;;15.70;96.10;;;;;;5075823;28;20444;-58
2022/05/15 00:50:05;;;;;;;7.67;5.87;;;15.80;96.40;;;;;;5075358;28;21001;-57
2022/05/15 00:52:40;;;;;;;6.47;5.30;;;15.80;96.80;;;;;;5075478;28;20957;-58
2022/05/15 00:55:09;;;;;;;9.27;5.73;;;;;;;;;;5075755;28;20451;-57
2022/05/15 00:57:47;;;;;;;8.47;5.50;;;15.50;97.10;;;;;;5075737;28;20449;-57
2022/05/15 01:00:18;;;;;;;7.50;6.20;;;15.30;98.00;;;;;;5075614;28;20567;-57
2022/05/15 01:02:52;;;;;;;6.77;5.10;;;15.20;98.20;;;;;;5075242;28;20486;-57
2022/05/15 01:05:20;;;;;;;6.37;5.67;;;15.30;98.40;;;;;;5075150;28;20908;-57
2022/05/15 01:07:47;;;;;;;7.63;5.67;;;15.20;98.80;;;;;;5074972;28;20486;-57
2022/05/15 01:10:15;;;;;;;9.10;6.00;;;15.20;99.30;;;;;;5075324;28;20444;-57
2022/05/15 01:12:43;;;;;;;7.37;5.80;;;15.40;99.80;;;;;;5075783;28;20542;-57
2022/05/15 01:15:15;;;;;;;7.87;6.33;;;15.30;99.30;;;;;;5075092;28;20448;-57
2022/05/15 01:17:42;;;;;;;7.33;5.80;;;15.10;99.90;;;;;;5074948;28;20524;-57
2022/05/15 01:20:14;;;;;;;8.47;6.90;;;15.20;99.90;;;;;;5075067;28;20490;-57
2022/05/15 01:22:43;;;;;;;10.50;6.40;;;15.20;99.90;;;;;;5074900;28;20424;-57
2022/05/15 01:25:15;;;;;;;9.30;6.37;;;15.20;99.90;;;;;;5074951;28;20488;-57
2022/05/15 01:27:45;;;;;;;8.40;6.47;;;15.20;99.90;;;;;;5075325;28;20899;-56
2022/05/15 01:30:13;;;;;;;9.60;6.63;;;15.30;99.90;;;;;;5074795;28;20481;-56
2022/05/15 01:32:40;;;;;;;7.10;6.00;;;15.20;99.90;;;;;;5074843;28;20555;-57
2022/05/15 01:35:08;;;;;;;8.73;6.00;;;15.10;99.90;;;;;;5074697;28;20452;-57
2022/05/15 01:37:36;;;;;;;8.50;6.30;;;15.00;99.90;;;;;;5074455;28;20451;-58
2022/05/15 01:40:08;;;;;;;8.50;5.60;;;14.90;99.90;;;;;;5074499;28;20492;-57
2022/05/15 01:42:35;;;;;;;7.23;6.03;;;14.80;99.90;;;;;;5074767;28;20486;-57
2022/05/15 01:45:02;;;;;;;6.67;6.07;;;14.60;99.90;;;;;;5074869;28;20467;-57
2022/05/15 01:47:29;;;;;;;6.90;6.17;;;14.60;99.90;;;;;;5074401;28;20992;-56
2022/05/15 01:49:56;;;;;;;10.00;6.47;;;14.80;99.90;;;;;;5074504;28;20470;-57
2022/05/15 01:52:23;;;;;;;5.70;5.00;;;14.80;99.90;;;;;;5074519;28;20456;-56
2022/05/15 01:54:51;;;;;;;6.07;5.27;;;14.90;99.90;;;;;;5074488;28;20444;-57
2022/05/15 01:57:21;;;;;;;7.43;6.53;;;14.90;99.90;;;;;;5074400;28;20455;-57
2022/05/15 01:59:48;;;;;;;8.60;6.10;;;14.90;99.90;;;;;;5073954;28;20515;-57
2022/05/15 02:02:15;;;;;;;6.80;5.47;;;14.90;99.90;;;;;;5074497;28;20444;-57
2022/05/15 02:04:43;;;;;;;9.10;6.63;;;14.90;99.90;;;;;;5073999;28;20454;-57
2022/05/15 02:07:10;;;;;;;7.80;7.00;;;14.90;99.90;;;;;;5074071;28;20452;-56
2022/05/15 02:09:37;;;;;;;10.73;6.20;;;14.70;99.90;;;;;;5074076;28;20495;-57
2022/05/15 02:12:06;;;;;;;6.10;5.60;;;14.40;99.90;;;;;;5073832;28;20954;-57
2022/05/15 02:14:35;;;;;;;6.90;6.10;;;14.50;99.90;;;;;;5074271;28;20502;-57
2022/05/15 02:17:02;;;;;;;9.60;5.70;;;14.60;99.90;;;;;;5073933;28;20452;-56
2022/05/15 02:19:29;;;;;;;7.00;5.87;;;14.50;99.90;;;;;;5074283;28;20464;-57
2022/05/15 02:21:56;;;;;;;6.30;5.70;;;14.60;99.90;;;;;;5073729;28;20476;-56
2022/05/15 02:24:23;;;;;;;7.03;5.53;;;14.60;99.90;;;;;;5074033;28;20539;-56
2022/05/15 02:26:51;;;;;;;6.37;5.70;;;14.60;99.90;;;;;;5073510;28;20444;-57
2022/05/15 02:29:18;;;;;;;7.10;6.23;;;14.40;99.90;;;;;;5074006;28;20476;-57
2022/05/15 02:31:47;;;;;;;6.43;5.83;;;14.40;99.90;;;;;;5074253;28;20429;-57
2022/05/15 02:34:14;;;;;;;6.57;5.60;;;14.40;99.90;;;;;;5073562;28;20505;-57
2022/05/15 02:36:41;;;;;;;7.13;5.83;;;14.20;99.90;;;;;;5073853;28;20444;-57
2022/05/15 02:39:08;;;;;;;8.13;5.73;;;14.40;99.90;;;;;;5073677;28;20495;-57
2022/05/15 02:41:35;;;;;;;8.27;5.80;;;14.50;99.90;;;;;;5072597;28;20567;-57
2022/05/15 02:44:02;;;;;;;7.77;6.17;;;14.50;99.90;;;;;;5073632;28;20466;-57
2022/05/15 02:46:29;;;;;;;6.83;6.13;;;14.20;99.90;;;;;;5073429;28;20535;-57
2022/05/15 02:51:43;;;;;;;6.07;5.57;;;14.30;99.90;;;;;;5073801;28;20539;-57
2022/05/15 02:54:10;;;;;;;5.77;5.37;;;14.30;99.90;;;;;;5073358;28;20448;-57
2022/05/15 02:56:38;;;;;;;6.63;5.53;;;14.30;99.90;;;;;;5073359;28;20445;-57
2022/05/15 02:59:06;;;;;;;10.27;5.30;;;14.40;99.90;;;;;;5073369;28;20559;-56
2022/05/15 03:01:33;;;;;;;6.67;5.97;;;14.20;99.90;;;;;;5073507;28;20554;-57
2022/05/15 03:04:03;;;;;;;6.50;5.60;;;14.10;99.90;;;;;;5073830;28;20444;-57
2022/05/15 03:06:30;;;;;;;8.07;5.93;;;14.10;99.90;;;;;;5073614;28;20452;-57
2022/05/15 03:08:58;;;;;;;8.40;6.97;;;13.90;99.90;;;;;;5073192;28;20464;-58
2022/05/15 03:11:25;;;;;;;6.30;5.37;;;13.90;99.90;;;;;;5073826;28;20436;-57
2022/05/15 03:13:52;;;;;;;6.40;5.40;;;14.00;99.90;;;;;;5073288;28;20457;-57
2022/05/15 03:16:20;;;;;;;5.80;5.20;;;14.10;99.90;;;;;;5073239;28;20480;-57
2022/05/15 03:18:49;;;;;;;5.57;4.90;;;14.10;99.90;;;;;;5073150;28;20459;-57
2022/05/15 03:21:29;;;;;;;5.63;5.13;;;14.10;99.90;;;;;;5072993;28;20978;-57
2022/05/15 03:23:57;;;;;;;6.23;5.63;;;14.10;99.90;;;;;;5073410;28;20433;-58
2022/05/15 03:26:25;;;;;;;10.80;6.40;;;14.10;99.90;;;;;;5073334;28;20844;-57
2022/05/15 03:28:53;;;;;;;7.83;5.00;;;14.10;99.90;;;;;;5073056;28;20459;-57
2022/05/15 03:31:20;;;;;;;4.83;4.33;;;14.00;99.90;;;;;;5072971;28;20445;-57
2022/05/15 03:33:47;;;;;;;8.23;5.60;;;14.00;99.90;;;;;;5073359;28;20535;-58
2022/05/15 03:36:15;;;;;;;6.23;4.90;;;14.00;99.90;;;;;;5073215;28;20501;-57
2022/05/15 03:38:45;;;;;;;8.60;6.00;;;13.70;99.90;;;;;;5073021;28;20559;-57
2022/05/15 03:41:13;;;;;;;8.90;5.10;;;13.60;99.90;;;;;;5076489;28;20495;-57
2022/05/15 03:43:40;;;;;;;6.63;5.60;;;13.70;99.90;;;;;;5076645;28;20558;-57
2022/05/15 03:46:08;;;;;;;9.80;6.27;;;13.90;99.90;;;;;;5077406;28;20535;-56
2022/05/15 03:48:35;;;;;;;6.90;5.43;;;13.90;99.90;;;;;;5077323;28;20551;-57
2022/05/15 03:51:03;;;;;;;8.10;5.90;;;14.00;99.90;;;;;;5077060;28;20931;-57
2022/05/15 03:53:31;;;;;;;5.33;4.80;;;14.00;99.90;;;;;;5076596;28;20452;-57
2022/05/15 03:56:00;;;;;;;6.70;5.90;;;14.00;99.90;;;;;;5076734;28;20519;-57
2022/05/15 03:58:29;;;;;;;6.40;5.83;;;14.00;99.90;;;;;;5076770;28;20551;-57
2022/05/15 04:00:56;;;;;;;6.73;4.83;;;14.10;99.90;;;;;;5076597;28;20482;-57
2022/05/15 04:03:23;;;;;;;5.50;4.90;;;14.10;99.90;;;;;;5076311;28;21005;-57
2022/05/15 04:05:51;;;;;;;8.10;5.87;;;13.90;99.90;;;;;;5076348;28;20444;-57
2022/05/15 04:08:18;;;;;;;6.73;5.70;;;13.90;99.90;;;;;;5076524;28;20506;-57
2022/05/15 04:10:46;;;;;;;6.73;5.50;;;13.90;99.90;;;;;;5076529;28;20536;-57
2022/05/15 04:13:14;;;;;;;7.07;5.90;;;13.70;99.90;;;;;;5076383;28;20456;-57
2022/05/15 04:15:42;;;;;;;5.90;4.70;;;13.70;99.90;;;;;;5076180;28;20768;-57
2022/05/15 04:18:10;;;;;;;6.70;6.20;;;13.70;99.90;;;;;;5076536;28;20476;-56
2022/05/15 04:20:37;;;;;;;6.70;5.90;;;13.90;99.90;;;;;;5076267;28;20452;-57
2022/05/15 04:23:04;;;;;;;6.03;5.30;;;13.90;99.90;;;;;;5075982;28;20495;-57
2022/05/15 04:25:32;;;;;;;6.73;5.20;;;13.90;99.90;;;;;;5075910;28;20447;-57
2022/05/15 04:27:59;;;;;;;6.57;5.60;;;14.00;99.90;;;;;;5076164;28;20531;-57
2022/05/15 04:30:28;;;;;;;5.60;5.07;;;14.10;99.90;;;;;;5075834;28;20452;-56
2022/05/15 04:32:56;;;;;;;6.33;5.27;;;14.10;99.90;;;;;;5075790;28;20802;-56
2022/05/15 04:35:24;;;;;;;6.30;5.73;;;14.20;99.90;;;;;;5075746;28;20543;-57
2022/05/15 04:37:52;;;;;;;6.87;5.27;;;14.20;99.90;;;;;;5076353;28;20452;-57
2022/05/15 04:40:21;;;;;;;6.70;5.73;;;14.30;99.90;;;;;;5075670;28;20506;-57
2022/05/15 04:42:49;;;;;;;6.30;5.87;;;14.30;99.90;;;;;;5075745;28;20484;-57
2022/05/15 04:45:16;;;;;;;11.30;5.87;;;14.30;99.90;;;;;;5075972;28;20429;-56
2022/05/15 04:47:46;;;;;;;9.20;6.07;;;14.30;99.90;;;;;;5075729;28;20463;-58
2022/05/15 04:50:14;;;;;;;6.40;5.40;;;14.30;99.90;;;;;;5075258;28;20444;-57
2022/05/15 04:52:41;;;;;;;7.33;5.50;;;14.20;99.90;;;;;;5075452;28;20451;-57
2022/05/15 04:55:09;;;;;;;5.97;5.47;;;14.20;99.90;;;;;;5075666;28;20471;-57
2022/05/15 04:57:36;;;;;;;6.20;5.60;;;14.20;99.90;;;;;;5075502;28;20452;-57
2022/05/15 05:00:07;;;;;;;6.00;5.40;;;14.20;99.90;;;;;;5075164;28;20472;-57
2022/05/15 05:02:34;;;;;;;11.03;6.50;;;14.20;99.90;;;;;;5075610;28;20622;-56
2022/05/15 05:05:03;;;;;;;11.20;6.60;;;14.20;99.90;;;;;;5075449;28;20898;-57
2022/05/15 05:07:31;;;;;;;5.90;5.30;;;14.20;99.90;;;;;;5075525;28;20556;-57
2022/05/15 05:09:58;;;;;;;8.93;6.70;;;14.20;99.90;;;;;;5075287;28;20464;-57
2022/05/15 05:12:25;;;;;;;8.03;6.00;;;14.30;99.90;;;;;;5075881;28;20437;-57
2022/05/15 05:14:52;;;;;;;5.73;5.17;;;14.30;99.90;;;;;;5075527;28;20482;-57
2022/05/15 05:17:20;;;;;;;7.30;5.70;;;14.40;99.90;;;;;;5075259;28;20433;-57
2022/05/15 05:19:47;;;;;;;9.57;6.00;;;14.50;99.90;;;;;;5075158;28;20464;-57
2022/05/15 05:22:16;;;;;;;7.40;5.50;;;14.50;99.90;;;;;;5074796;28;20460;-57
2022/05/15 05:24:43;;;;;;;5.87;5.37;;;14.60;99.90;;;;;;5074752;28;20546;-57
2022/05/15 05:27:10;;;;;;;5.63;5.07;;;14.60;99.90;;;;;;5074894;28;20453;-57
2022/05/15 05:29:37;;;;;;;6.03;5.43;;;14.60;99.90;;;;;;5074651;28;20464;-57
2022/05/15 05:32:05;;;;;;;5.83;5.17;;;14.60;99.90;;;;;;5074598;28;20539;-56
2022/05/15 05:34:32;;;;;;;5.17;4.63;;;14.70;99.90;;;;;;5074754;28;20444;-57
2022/05/15 05:36:59;;;;;;;6.53;5.73;;;14.70;99.90;;;;;;5074717;28;20949;-57
2022/05/15 05:39:29;;;;;;;6.20;5.27;;;14.70;99.90;;;;;;5074169;28;20963;-58
2022/05/15 05:41:57;;;;;;;6.00;5.40;;;14.60;99.90;;;;;;5074834;28;20966;-56
2022/05/15 05:44:24;;;;;;;5.03;4.60;;;14.70;99.90;;;;;;5074614;28;20934;-57
2022/05/15 05:46:51;;;;;;;7.47;4.63;;;14.90;99.90;;;;;;5074290;28;20440;-57
2022/05/15 05:49:19;;;;;;;6.17;5.50;;;15.00;99.90;;;;;;5074724;28;20464;-57
2022/05/15 05:51:46;;;;;;;6.50;5.17;;;15.10;99.90;;;;;;5074499;28;20803;-57
2022/05/15 05:54:13;;;;;;;6.70;5.33;;;15.20;99.90;;;;;;5074603;28;20448;-57
2022/05/15 05:56:42;;;;;;;7.80;5.70;;;15.30;99.90;;;;;;5074249;28;20448;-57
2022/05/15 05:59:09;;;;;;;8.57;6.00;;;15.40;99.90;;;;;;5074031;28;20982;-56
2022/05/15 06:01:36;;;;;;;6.43;5.73;;;15.50;99.90;;;;;;5073617;28;20476;-57
2022/05/15 06:06:59;;;;;;;5.80;5.17;;;15.60;99.90;;;;;;5032134;28;20433;-57
2022/05/15 06:09:27;;;;;;;6.50;5.20;;;15.70;99.90;;;;;;5063767;28;20468;-56
2022/05/15 06:11:55;;;;;;;5.13;4.50;;;15.70;99.90;;;;;;5074253;28;20444;-57
2022/05/15 06:14:22;;;;;;;7.83;4.73;;;15.70;99.90;;;;;;5073837;28;20432;-56
2022/05/15 06:16:50;;;;;;;5.27;4.40;;;15.80;99.90;;;;;;5074124;28;20531;-57
2022/05/15 06:19:17;;;;;;;7.70;5.63;;;15.90;99.90;;;;;;5073994;28;20551;-56
2022/05/15 06:21:44;;;;;;;7.03;4.53;;;15.90;99.90;;;;;;5073664;28;20563;-57
2022/05/15 06:24:12;;;;;;;6.07;4.27;;;16.00;99.90;;;;;;5074029;28;20475;-57
2022/05/15 06:26:39;;;;;;;5.57;5.07;;;16.10;99.90;;;;;;5074218;28;20444;-58
2022/05/15 06:29:07;;;;;;;7.50;5.40;;;16.20;99.90;;;;;;5073738;28;20517;-56
2022/05/15 06:31:35;;;;;;;5.07;4.67;;;16.20;99.90;;;;;;5073533;28;20535;-57
2022/05/15 06:34:02;;;;;;;6.77;4.37;;;16.30;99.90;;;;;;5073904;28;20444;-58
2022/05/15 06:36:29;;;;;;;6.40;5.10;;;16.40;99.90;;;;;;5073498;28;20484;-58
2022/05/15 06:38:56;;;;;;;9.90;5.93;;;16.40;99.90;;;;;;5073523;28;20464;-58
2022/05/15 06:41:24;;;;;;;8.27;4.90;;;16.40;99.90;;;;;;5073377;28;20483;-57
2022/05/15 06:43:52;;;;;;;7.60;4.67;;;16.50;99.90;;;;;;5073945;28;20475;-57
2022/05/15 06:46:21;;;;;;;9.67;4.57;;;16.70;99.90;;;;;;5073665;28;20536;-57
2022/05/15 06:48:49;;;;;;;8.13;4.63;;;16.80;99.90;;;;;;5073410;28;20583;-57
2022/05/15 06:51:16;;;;;;;5.37;4.87;;;16.80;99.90;;;;;;5073706;28;20453;-57
2022/05/15 06:53:44;;;;;;;7.80;4.50;;;16.90;99.90;;;;;;5073825;28;20443;-57
2022/05/15 06:58:56;;;;;;;5.13;4.50;;;17.10;99.90;;;;;;5073850;28;20460;-57
2022/05/15 07:01:25;;;;;;;4.60;4.10;;;17.20;99.90;;;;;;5073696;28;20491;-57
2022/05/15 07:03:52;;;;;;;4.60;4.20;;;17.30;99.90;;;;;;5073556;28;20535;-57
2022/05/15 07:06:19;;;;;;;5.47;3.87;;;17.40;99.90;;;;;;5073189;28;20954;-56
2022/05/15 07:08:46;;;;;;;8.30;4.07;;;17.30;99.90;;;;;;5073223;28;20472;-57
2022/05/15 07:11:13;;;;;;;7.03;4.40;;;17.40;99.90;;;;;;5073540;28;20444;-56
2022/05/15 07:13:41;;;;;;;6.37;3.97;;;17.40;99.90;;;;;;5074787;28;20460;-56
2022/05/15 07:16:09;;;;;;;4.63;3.70;;;17.40;99.90;;;;;;5077234;28;20525;-58
2022/05/15 07:18:37;;;;;;;6.53;4.30;;;17.50;99.90;;;;;;5078181;28;20468;-58
2022/05/15 07:21:05;;;;;;;7.43;4.43;;;17.60;99.90;;;;;;5077450;28;20531;-58
2022/05/15 07:23:32;;;;;;;3.73;3.20;;;17.80;99.90;;;;;;5076944;28;20486;-56
2022/05/15 07:25:59;;;;;;;6.90;3.37;;;17.80;99.90;;;;;;5077373;28;20447;-58
2022/05/15 07:28:27;;;;;;;5.87;3.03;;;18.10;99.90;;;;;;5077196;28;20503;-58
2022/05/15 07:30:54;;;;;;;4.07;3.20;;;18.70;99.90;;;;;;5077220;28;20454;-57
2022/05/15 07:33:21;;;;;;;4.73;3.33;;;19.50;99.90;;;;;;5077195;28;20446;-57
2022/05/15 07:35:50;;;;;;;7.27;3.27;;;20.00;97.70;;;;;;5077101;28;20452;-57
2022/05/15 07:38:18;;;;;;;5.27;3.10;;;20.90;97.50;;;;;;5076717;28;21034;-57
2022/05/15 07:40:45;;;;;;;5.10;3.30;;;21.40;95.00;;;;;;5076618;28;20607;-57
2022/05/15 07:43:15;;;;;;;6.10;2.73;;;22.20;94.30;;;;;;5076542;28;20609;-57
2022/05/15 07:45:42;;;;;;;3.60;3.30;;;22.60;92.80;;;;;;5076755;28;20451;-57
2022/05/15 07:48:10;;;;;;;3.30;2.90;;;22.80;92.70;;;;;;5076836;28;20547;-57
2022/05/15 07:50:38;;;;;;;2.93;2.73;;;23.20;91.90;;;;;;5077196;28;20448;-58
2022/05/15 07:53:07;;;;;;;6.00;3.13;;;23.30;90.80;;;;;;5076793;28;20454;-58
2022/05/15 07:55:34;;;;;;;2.30;2.10;;;24.00;90.30;;;;;;5076734;28;20454;-58
2022/05/15 07:58:01;;;;;;;3.80;3.43;;;24.00;90.80;;;;;;5076338;28;20958;-58
2022/05/15 08:00:29;;;;;;;4.67;3.00;;;24.10;88.00;;;;;;5076503;28;20444;-58
2022/05/15 08:03:04;;;;;;;4.13;3.20;;;24.80;87.60;;;;;;5076470;28;20480;-57
2022/05/15 08:08:23;;;;;;;3.20;2.50;;;25.10;83.00;;;;;;5037782;28;20519;-58
2022/05/15 08:10:51;;;;;;;3.93;2.83;;;24.80;84.00;;;;;;5076483;28;20518;-58
2022/05/15 08:13:21;;;;;;;4.43;2.77;;;24.40;82.90;;;;;;5076151;28;20531;-58
2022/05/15 08:15:49;;;;;;;4.50;2.83;;;24.70;87.00;;;;;;5076000;28;20483;-58
2022/05/15 08:23:51;;;;;;;4.87;3.60;;;26.10;80.40;;;;;;5076439;28;20836;-57
2022/05/15 08:26:22;;;;;;;5.80;2.77;;;25.90;79.10;;;;;;5075334;28;20436;-58
2022/05/15 08:28:49;;;;;;;4.10;3.00;;;26.50;76.90;;;;;;5076100;28;20472;-58
2022/05/15 08:31:22;;;;;;;4.83;3.20;;;26.80;77.70;;;;;;5075991;28;20459;-58
2022/05/15 08:33:52;;;;;;;4.57;2.67;;;26.90;76.90;;;;;;5076035;28;20444;-57
2022/05/15 08:36:22;;;;;;;4.30;2.43;;;26.60;76.90;;;;;;5076062;28;20487;-59
2022/05/15 08:38:51;;;;;;;3.03;2.83;;;26.50;78.70;;;;;;5075850;28;20551;-58
2022/05/15 08:41:25;;;;;;;7.20;3.10;;;27.20;77.70;;;;;;5075518;28;20476;-58
2022/05/15 08:44:00;;;;;;;5.10;2.97;;;27.50;73.80;;;;;;5075765;28;20672;-59
2022/05/15 08:46:35;;;;;;;6.47;2.57;;;28.10;73.60;;;;;;5075806;28;20436;-58
2022/05/15 08:49:09;;;;;;;4.47;2.70;;;28.00;70.00;;;;;;5075924;28;20470;-58
2022/05/15 08:51:36;;;;;;;6.13;2.53;;;27.20;70.60;;;;;;5075991;28;20516;-58
2022/05/15 08:54:08;;;;;;;3.40;3.13;;;27.20;72.60;;;;;;5075998;28;20447;-58
2022/05/15 08:56:44;;;;;;;4.63;2.60;;;27.20;75.50;;;;;;5076381;28;20456;-58
2022/05/15 08:59:21;;;;;;;4.30;2.60;;;28.10;69.80;;;;;;5075431;28;20464;-58
2022/05/15 09:01:52;;;;;;;4.47;2.50;;;28.00;67.30;;;;;;5075146;28;20425;-58
2022/05/15 09:04:19;;;;;;;2.67;2.30;;;28.70;68.70;;;;;;5075140;28;20516;-58
2022/05/15 09:06:54;;;;;;;2.87;2.23;;;28.80;64.70;;;;;;5075029;28;20440;-58
2022/05/15 09:09:30;;;;;;;4.70;3.30;;;28.00;67.40;;;;;;5075406;28;20474;-58
2022/05/15 09:12:02;;;;;;;4.93;3.50;;;28.30;69.00;;;;;;5075008;28;20428;-58
2022/05/15 09:14:41;;;;;;;4.43;2.50;;;28.20;65.70;;;;;;5075360;28;20480;-58
2022/05/15 09:17:18;;;;;;;4.63;2.73;;;28.20;63.80;;;;;;5075277;28;20847;-59
2022/05/15 09:19:48;;;;;;;7.50;2.83;;;28.20;62.20;;;;;;5075110;28;20468;-59
2022/05/15 09:22:16;;;;;;;5.63;3.47;;;29.10;65.40;;;;;;5074744;28;20511;-59
2022/05/15 09:24:51;;;;;;;2.53;2.20;;;29.60;63.10;;;;;;5075077;28;20444;-58
2022/05/15 09:27:19;;;;;;;2.93;2.70;;;28.70;62.80;;;;;;5075161;28;20428;-58
2022/05/15 09:29:53;;;;;;;4.10;3.07;;;29.10;63.90;;;;;;5074848;28;20900;-58
2022/05/15 09:32:32;;;;;;;4.47;2.40;;;29.50;63.20;;;;;;5074661;28;20425;-59
2022/05/15 09:35:02;;;;;;;5.70;2.73;;;28.90;61.50;;;;;;5075518;28;20448;-59
2022/05/15 09:40:37;;;;;;;3.17;2.87;;;29.80;60.60;;;;;;5074442;28;20543;-59
2022/05/15 09:45:55;;;;;;;4.90;2.70;;;30.50;58.40;;;;;;5074524;28;20419;-59
2022/05/15 09:48:25;;;;;;;3.77;2.60;;;29.80;57.10;;;;;;5074612;28;20549;-59
2022/05/15 09:51:01;;;;;;;2.80;2.33;;;29.80;58.60;;;;;;5074289;28;20926;-59
2022/05/15 09:53:43;;;;;;;3.80;3.40;;;30.60;56.70;;;;;;5074245;28;20443;-59
2022/05/15 09:56:23;;;;;;;5.07;2.57;;;29.70;58.00;;;;;;5074145;28;20531;-58
2022/05/15 09:58:55;;;;;;;3.70;2.20;;;29.60;58.40;;;;;;5074114;28;20496;-59
2022/05/15 10:01:33;;;;;;;2.80;2.40;;;30.40;58.70;;;;;;5074125;28;20530;-58
2022/05/15 10:04:01;;;;;;;4.83;2.30;;;30.70;57.90;;;;;;5074063;28;20463;-58
2022/05/15 10:06:30;;;;;;;3.40;2.33;;;30.90;57.60;;;;;;5073983;28;20449;-58
2022/05/15 10:09:13;;;;;;;8.33;2.70;;;30.90;56.50;;;;;;5074215;28;20555;-58
2022/05/15 10:11:47;;;;;;;2.77;2.50;;;30.90;56.90;;;;;;5073965;28;20429;-59
2022/05/15 10:14:24;;;;;;;3.50;2.63;;;30.80;56.90;;;;;;5073788;28;20544;-59
2022/05/15 10:16:56;;;;;;;3.40;2.50;;;31.00;56.40;;;;;;5074123;28;20439;-58
2022/05/15 10:19:29;;;;;;;3.20;2.33;;;31.10;56.10;;;;;;5073806;28;20543;-59
2022/05/15 10:22:14;;;;;;;4.23;2.30;;;31.60;55.10;;;;;;5074113;28;20536;-58
2022/05/15 10:24:45;;;;;;;3.70;2.87;;;31.10;55.60;;;;;;5074016;28;20431;-58
2022/05/15 10:27:19;;;;;;;2.93;2.60;;;31.50;56.30;;;;;;5074104;28;20428;-58
2022/05/15 10:29:51;;;;;;;3.30;2.63;;;30.20;55.80;;;;;;5073588;28;20472;-59
2022/05/15 10:32:24;;;;;;;3.03;2.43;;;30.20;55.20;;;;;;5073801;28;20459;-59
2022/05/15 10:34:51;;;;;;;4.10;2.63;;;30.80;55.70;;;;;;5074668;28;20429;-58
2022/05/15 10:37:53;;;;;;;3.50;2.40;;;31.50;56.40;;;;;;5073546;28;20509;-59
2022/05/15 10:40:25;;;;;;;3.17;2.30;;;31.20;55.50;;;;;;5073581;28;20479;-58
2022/05/15 10:43:08;;;;;;;2.63;2.37;;;31.50;55.50;;;;;;5073594;28;20482;-59
2022/05/15 10:45:41;;;;;;;5.10;2.53;;;31.10;53.80;;;;;;5073965;28;20437;-59
2022/05/15 10:48:36;;;;;;;4.13;2.60;;;31.90;55.00;;;;;;5072980;28;20547;-58
2022/05/15 10:51:10;;;;;;;3.40;2.20;;;32.10;54.70;;;;;;5073439;28;20488;-59
2022/05/15 10:59:45;;;;;;;3.30;2.47;;;32.10;51.90;;;;;;5073639;28;20443;-59
2022/05/15 11:02:39;;;;;;;8.33;2.30;;;31.50;53.60;;;;;;5073331;28;20428;-60
2022/05/15 11:05:14;;;;;;;2.77;2.20;;;32.00;53.00;;;;;;5073633;28;20430;-59
2022/05/15 11:07:49;;;;;;;4.50;2.57;;;31.00;52.70;;;;;;5074086;28;20412;-59
2022/05/15 11:10:24;;;;;;;2.63;2.40;;;31.20;53.80;;;;;;5073195;28;20895;-60
2022/05/15 11:13:03;;;;;;;2.30;1.90;;;30.90;51.20;;;;;;5073088;28;20519;-59
2022/05/15 11:15:52;;;;;;;4.13;2.93;;;31.40;53.60;;;;;;5073476;28;20436;-59
2022/05/15 11:18:33;;;;;;;4.50;2.80;;;31.90;53.10;;;;;;5073411;28;20547;-59
2022/05/15 11:21:05;;;;;;;3.63;2.53;;;31.90;53.30;;;;;;5073118;28;20851;-59
2022/05/15 11:23:42;;;;;;;2.50;2.30;;;32.10;50.70;;;;;;5072997;28;20518;-59
2022/05/15 11:26:14;;;;;;;4.17;2.67;;;32.40;51.20;;;;;;5073423;28;20432;-59
2022/05/15 11:28:46;;;;;;;2.83;2.17;;;31.90;50.00;;;;;;5073064;28;20468;-59
2022/05/15 11:31:18;;;;;;;5.03;2.63;;;32.10;51.70;;;;;;5074099;28;20802;-59
2022/05/15 11:33:54;;;;;;;3.27;2.50;;;31.40;51.40;;;;;;5073071;28;20435;-60
2022/05/15 11:36:33;;;;;;;4.20;2.50;;;31.80;53.70;;;;;;5073290;28;20543;-60
2022/05/15 11:39:05;;;;;;;3.30;2.43;;;31.90;51.10;;;;;;5073229;28;20482;-60
2022/05/15 11:42:09;;;;;;;2.47;2.27;;;32.30;52.10;;;;;;5072778;28;20480;-60
2022/05/15 11:44:38;;;;;;;3.90;2.50;;;31.90;51.40;;;;;;5073422;28;20491;-60
2022/05/15 11:47:26;;;;;;;2.60;2.40;;;32.40;49.90;;;;;;5073164;28;20448;-59
2022/05/15 11:50:15;;;;;;;3.50;2.73;;;32.40;49.40;;;;;;5073305;28;20487;-60
2022/05/15 11:53:03;;;;;;;2.73;2.47;;;32.50;50.80;;;;;;5073138;28;20456;-59
2022/05/15 11:55:47;;;;;;;2.60;2.33;;;32.20;50.00;;;;;;5072832;28;20416;-59
2022/05/15 11:58:36;;;;;;;3.83;2.43;;;31.80;48.60;;;;;;5071449;28;20479;-59
2022/05/15 12:01:13;;;;;;;2.63;2.40;;;31.80;49.50;;;;;;5074771;28;20440;-59
2022/05/15 12:03:52;;;;;;;4.40;2.40;;;32.20;49.30;;;;;;5076674;28;20560;-59
2022/05/15 12:06:23;;;;;;;3.40;2.40;;;31.90;50.20;;;;;;5076345;28;20783;-59
2022/05/15 12:08:54;;;;;;;3.37;2.50;;;32.30;49.20;;;;;;5076531;28;20815;-59
2022/05/15 12:11:34;;;;;;;3.47;2.60;;;31.90;48.10;;;;;;5076609;28;20429;-60
2022/05/15 12:14:31;;;;;;;2.87;2.30;;;31.50;49.00;;;;;;5076456;28;20478;-59
2022/05/15 12:17:01;;;;;;;4.23;2.93;;;31.00;48.40;;;;;;5076134;28;20428;-59
2022/05/15 12:19:32;;;;;;;4.33;2.87;;;31.00;48.20;;;;;;5075981;28;20560;-59
2022/05/15 12:22:03;;;;;;;3.13;2.53;;;31.00;49.40;;;;;;5076804;28;20472;-60
2022/05/15 12:24:33;;;;;;;4.87;2.77;;;31.30;48.20;;;;;;5076188;28;20490;-59
2022/05/15 12:27:09;;;;;;;2.63;2.20;;;31.10;48.30;;;;;;5076249;28;20444;-60
2022/05/15 12:29:49;;;;;;;4.50;2.17;;;31.10;49.00;;;;;;5076166;28;20551;-59
2022/05/15 12:32:19;;;;;;;6.33;3.20;;;31.10;48.40;;;;;;5075924;28;20493;-59
2022/05/15 12:34:51;;;;;;;4.73;2.70;;;31.30;49.00;;;;;;5075838;28;20486;-59
2022/05/15 12:37:22;;;;;;;3.07;2.50;;;31.20;48.70;;;;;;5076071;28;20432;-59
2022/05/15 12:39:52;;;;;;;3.10;2.40;;;30.90;48.60;;;;;;5076040;28;20563;-60
2022/05/15 12:42:23;;;;;;;2.93;2.30;;;30.50;49.00;;;;;;5075586;28;20927;-59
2022/05/15 12:45:03;;;;;;;2.90;2.70;;;30.00;49.30;;;;;;5076006;28;20476;-59
2022/05/15 12:47:32;;;;;;;3.57;2.70;;;30.50;49.20;;;;;;5075924;28;20438;-60
2022/05/15 12:50:05;;;;;;;2.70;2.50;;;30.90;49.30;;;;;;5075775;28;20511;-59
2022/05/15 12:52:34;;;;;;;2.87;2.37;;;30.60;48.90;;;;;;5075442;28;20436;-59
2022/05/15 12:55:05;;;;;;;3.00;2.60;;;30.50;49.80;;;;;;5075834;28;20506;-59
2022/05/15 12:57:42;;;;;;;4.60;2.70;;;30.30;49.10;;;;;;5075287;28;20543;-59
2022/05/15 13:00:14;;;;;;;5.13;2.50;;;30.20;48.90;;;;;;5075563;28;20757;-59
2022/05/15 13:02:41;;;;;;;3.20;2.80;;;30.40;49.40;;;;;;5075297;28;20976;-59
2022/05/15 13:05:22;;;;;;;4.87;2.50;;;30.80;50.30;;;;;;5075041;28;20990;-59
2022/05/15 13:07:56;;;;;;;4.10;2.53;;;30.50;48.30;;;;;;5075396;28;20428;-59
2022/05/15 13:10:25;;;;;;;2.93;2.33;;;30.50;48.90;;;;;;5075368;28;20483;-59
2022/05/15 13:12:56;;;;;;;2.90;2.20;;;30.60;48.90;;;;;;5074976;28;20444;-60
2022/05/15 13:15:25;;;;;;;2.93;2.30;;;30.50;48.00;;;;;;5075008;28;20442;-59
2022/05/15 13:17:54;;;;;;;2.83;2.47;;;30.40;49.90;;;;;;5074884;28;20458;-59
2022/05/15 13:20:25;;;;;;;3.83;2.40;;;30.70;48.20;;;;;;5074834;28;20480;-59
2022/05/15 13:22:54;;;;;;;3.00;2.33;;;30.30;46.90;;;;;;5075646;28;20432;-59
2022/05/15 13:25:28;;;;;;;2.63;2.40;;;30.10;47.30;;;;;;5074770;28;20985;-58
2022/05/15 13:27:56;;;;;;;2.83;2.63;;;29.90;49.10;;;;;;5075013;28;20431;-59
2022/05/15 13:30:26;;;;;;;3.20;2.53;;;29.90;47.30;;;;;;5074968;28;20444;-59
2022/05/15 13:32:59;;;;;;;2.83;2.50;;;29.40;47.10;;;;;;5075231;28;20448;-59